createdAt,value
2022-10-15T00:03:21.535Z,19.5
2022-10-15T00:08:26.954Z,19.5
2022-10-15T00:13:31.827Z,19.4
2022-10-15T00:18:37.250Z,19.4
2022-10-15T00:23:42.681Z,19.5
2022-10-15T00:28:47.878Z,19.5
2022-10-15T00:33:53.313Z,19.5
2022-10-15T00:38:58.187Z,19.4
2022-10-15T00:44:03.623Z,19.5
2022-10-15T00:49:09.054Z,19.5
2022-10-15T00:54:14.527Z,19.4
2022-10-15T00:59:19.970Z,19.5
2022-10-15T01:04:25.343Z,19.5
2022-10-15T01:09:30.749Z,19.5
2022-10-15T01:14:35.890Z,19.5
2022-10-15T01:19:41.305Z,19.5
2022-10-15T01:24:46.699Z,19.4
2022-10-15T01:29:51.866Z,19.5
2022-10-15T01:34:57.247Z,19.5
2022-10-15T01:40:02.386Z,19.5
2022-10-15T01:45:07.548Z,19.5
2022-10-15T01:50:12.941Z,19.4
2022-10-15T01:55:18.322Z,19.5
2022-10-15T02:00:23.760Z,19.5
2022-10-15T02:05:29.131Z,19.5
2022-10-15T02:10:34.317Z,19.5
2022-10-15T02:15:39.786Z,19.5
2022-10-15T02:20:45.204Z,19.4
2022-10-15T02:25:50.623Z,19.4
2022-10-15T02:30:55.493Z,19.4
2022-10-15T02:36:00.884Z,19.5
2022-10-15T02:41:05.752Z,19.5
2022-10-15T02:46:10.901Z,19.5
2022-10-15T02:51:16.302Z,19.4
2022-10-15T02:56:21.739Z,19.5
2022-10-15T03:01:27.029Z,19.4
2022-10-15T03:06:32.557Z,19.4
2022-10-15T03:11:37.696Z,19.4
2022-10-15T03:16:43.117Z,19.4
2022-10-15T03:21:48.515Z,19.4
2022-10-15T03:26:53.906Z,19.4
2022-10-15T03:31:59.382Z,19.4
2022-10-15T03:37:04.764Z,19.4
2022-10-15T03:42:09.935Z,19.4
2022-10-15T03:47:15.377Z,19.4
2022-10-15T03:52:20.982Z,19.4
2022-10-15T03:57:26.361Z,19.4
2022-10-15T04:02:31.562Z,19.4
2022-10-15T04:07:36.941Z,19.4
2022-10-15T04:12:42.064Z,19.4
2022-10-15T04:17:46.994Z,19.4
2022-10-15T04:22:52.454Z,19.4
2022-10-15T04:27:57.853Z,19.4
2022-10-15T04:33:02.985Z,19.4
2022-10-15T04:38:08.373Z,19.4
2022-10-15T04:43:13.502Z,19.4
2022-10-15T04:48:18.377Z,19.3
2022-10-15T04:53:23.790Z,19.4
2022-10-15T04:58:29.200Z,19.4
2022-10-15T05:03:35.550Z,19.4
2022-10-15T05:08:46.100Z,19.4
2022-10-15T05:13:51.492Z,19.4
2022-10-15T05:18:56.963Z,19.4
2022-10-15T05:24:02.352Z,19.4
2022-10-15T05:29:07.209Z,19.4
2022-10-15T05:34:12.638Z,19.4
2022-10-15T05:39:18.099Z,19.4
2022-10-15T05:44:22.959Z,19.4
2022-10-15T05:49:28.383Z,19.4
2022-10-15T05:54:33.774Z,19.4
2022-10-15T05:59:39.188Z,19.4
2022-10-15T06:04:44.601Z,19.3
2022-10-15T06:09:50.096Z,19.3
2022-10-15T06:14:55.230Z,19.4
2022-10-15T06:20:00.673Z,19.4
2022-10-15T06:25:06.079Z,19.4
2022-10-15T06:30:11.229Z,19.4
2022-10-15T06:35:16.649Z,19.4
2022-10-15T06:40:22.077Z,19.4
2022-10-15T06:45:27.516Z,19.4
2022-10-15T06:50:32.397Z,19.4
2022-10-15T06:55:37.783Z,19.5
2022-10-15T07:00:43.216Z,19.4
2022-10-15T07:05:48.364Z,19.4
2022-10-15T07:10:53.760Z,19.4
2022-10-15T07:15:59.174Z,19.4
2022-10-15T07:21:04.427Z,19.4
2022-10-15T07:26:09.930Z,19.4
2022-10-15T07:31:15.081Z,19.4
2022-10-15T07:36:20.244Z,19.4
2022-10-15T07:41:25.650Z,19.4
2022-10-15T07:46:31.048Z,19.4
2022-10-15T07:51:36.208Z,19.4
2022-10-15T07:56:41.595Z,19.4
2022-10-15T08:01:48.408Z,19.4
2022-10-15T08:06:56.027Z,19.4
2022-10-15T08:12:01.417Z,19.3
2022-10-15T08:17:06.539Z,19.4
2022-10-15T08:22:11.758Z,19.4
2022-10-15T08:27:17.162Z,19.4
2022-10-15T08:32:22.827Z,19.4
2022-10-15T08:37:28.682Z,19.5
2022-10-15T08:42:34.097Z,19.5
2022-10-15T08:47:38.948Z,19.5
2022-10-15T08:52:44.113Z,19.5
2022-10-15T08:57:49.515Z,19.5
2022-10-15T09:02:55.004Z,19.6
2022-10-15T09:08:00.285Z,19.6
2022-10-15T09:13:05.861Z,19.7
2022-10-15T09:18:11.257Z,19.7
2022-10-15T09:23:16.422Z,19.8
2022-10-15T09:28:21.874Z,19.8
2022-10-15T09:33:27.370Z,19.8
2022-10-15T09:38:33.065Z,19.9
2022-10-15T09:43:38.512Z,20
2022-10-15T09:48:43.911Z,20
2022-10-15T09:53:49.347Z,20
2022-10-15T09:58:54.710Z,20.1
2022-10-15T10:03:59.554Z,19.9
2022-10-15T10:09:04.698Z,19.9
2022-10-15T10:14:10.101Z,19.9
2022-10-15T10:19:15.496Z,19.9
2022-10-15T10:24:20.377Z,20
2022-10-15T10:29:34.400Z,20
2022-10-15T10:34:40.662Z,20
2022-10-15T10:39:45.799Z,20
2022-10-15T10:44:51.195Z,20
2022-10-15T10:49:56.603Z,20
2022-10-15T10:55:02.056Z,20
2022-10-15T11:00:07.432Z,20
2022-10-15T11:05:12.868Z,20.2
2022-10-15T11:10:18.297Z,20.1
2022-10-15T11:15:23.692Z,20.1
2022-10-15T11:20:37.822Z,20.1
2022-10-15T11:26:01.363Z,20
2022-10-15T11:31:06.763Z,20.1
2022-10-15T11:36:11.886Z,20.1
2022-10-15T11:41:17.094Z,20.1
2022-10-15T11:46:22.495Z,20.1
2022-10-15T11:51:27.377Z,20.1
2022-10-15T11:56:33.699Z,20.1
2022-10-15T12:01:44.010Z,20.2
2022-10-15T12:06:49.132Z,20.1
2022-10-15T12:11:54.585Z,20.1
2022-10-15T12:17:00.031Z,20.1
2022-10-15T12:22:05.312Z,20.1
2022-10-15T12:27:10.280Z,20.1
2022-10-15T12:32:15.688Z,20.1
2022-10-15T12:37:20.620Z,20.2
2022-10-15T12:42:26.273Z,20.2
2022-10-15T12:47:31.710Z,20.2
2022-10-15T12:52:36.851Z,20.2
2022-10-15T12:57:42.003Z,20.2
2022-10-15T13:02:47.397Z,20.2
2022-10-15T13:07:52.805Z,20.2
2022-10-15T13:12:57.706Z,20.2
2022-10-15T13:18:03.148Z,20.2
2022-10-15T13:23:18.674Z,20.2
2022-10-15T13:28:36.249Z,20.2
2022-10-15T13:33:41.804Z,20.2
2022-10-15T13:38:47.402Z,20.2
2022-10-15T13:43:52.569Z,20.3
2022-10-15T13:48:57.951Z,20.2
2022-10-15T13:54:03.365Z,20.3
2022-10-15T13:59:08.801Z,20.2
2022-10-15T14:04:14.233Z,20.2
2022-10-15T14:09:19.364Z,20.2
2022-10-15T14:14:24.801Z,20.2
2022-10-15T14:19:30.194Z,20.3
2022-10-15T14:24:35.424Z,20.2
2022-10-15T14:29:40.838Z,20.2
2022-10-15T14:34:46.231Z,20.3
2022-10-15T14:39:51.357Z,20.2
2022-10-15T14:44:56.707Z,20.3
2022-10-15T14:50:02.105Z,20.2
2022-10-15T14:55:08.348Z,20.2
2022-10-15T15:00:18.799Z,20.2
2022-10-15T15:05:24.273Z,20.2
2022-10-15T15:10:29.416Z,20.2
2022-10-15T15:15:34.583Z,20.2
2022-10-15T15:20:39.991Z,20.2
2022-10-15T15:25:45.407Z,20.2
2022-10-15T15:30:50.848Z,20.2
2022-10-15T15:35:56.310Z,20.1
2022-10-15T15:41:01.695Z,20.1
2022-10-15T15:46:07.027Z,20.1
2022-10-15T15:51:12.413Z,20.1
2022-10-15T15:56:17.838Z,20.1
2022-10-15T16:01:23.067Z,20.1
2022-10-15T16:06:28.583Z,20.1
2022-10-15T16:11:33.706Z,20.1
2022-10-15T16:16:38.866Z,20.2
2022-10-15T16:21:44.313Z,20.2
2022-10-15T16:26:49.731Z,20.1
2022-10-15T16:31:54.588Z,20.1
2022-10-15T16:37:00.004Z,20.2
2022-10-15T16:42:05.554Z,20.2
2022-10-15T16:47:10.597Z,20.1
2022-10-15T16:52:16.004Z,20.1
2022-10-15T16:57:21.406Z,20.2
2022-10-15T17:02:27.175Z,20.1
2022-10-15T17:07:33.226Z,20.1
2022-10-15T17:12:38.632Z,20.1
2022-10-15T17:17:43.795Z,20.1
2022-10-15T17:22:49.187Z,20.1
2022-10-15T17:27:54.311Z,20.1
2022-10-15T17:32:59.174Z,20.2
2022-10-15T17:38:04.587Z,20.1
2022-10-15T17:43:09.993Z,20.2
2022-10-15T17:48:15.147Z,20.1
2022-10-15T17:53:20.529Z,20.1
2022-10-15T17:58:25.671Z,20.2
2022-10-15T18:03:31.114Z,20.1
2022-10-15T18:08:36.538Z,20.1
2022-10-15T18:13:41.662Z,20.1
2022-10-15T18:18:46.836Z,20.1
2022-10-15T18:23:52.234Z,20.1
2022-10-15T18:28:57.715Z,20
2022-10-15T18:34:03.282Z,20.1
2022-10-15T18:39:08.674Z,20.1
2022-10-15T18:44:14.094Z,20
2022-10-15T18:49:19.233Z,20
2022-10-15T18:54:24.668Z,20
2022-10-15T18:59:29.801Z,20
2022-10-15T19:04:34.957Z,20
2022-10-15T19:09:40.352Z,20
2022-10-15T19:14:45.769Z,19.9
2022-10-15T19:19:51.206Z,19.9
2022-10-15T19:24:56.614Z,19.9
2022-10-15T19:30:01.470Z,19.9
2022-10-15T19:35:06.914Z,19.9
2022-10-15T19:40:12.377Z,19.8
2022-10-15T19:45:17.859Z,19.8
2022-10-15T19:50:22.808Z,19.9
2022-10-15T19:55:28.203Z,19.9
2022-10-15T20:00:33.721Z,19.8
2022-10-15T20:05:39.165Z,19.8
2022-10-15T20:10:44.569Z,19.8
2022-10-15T20:15:49.683Z,19.8
2022-10-15T20:20:55.178Z,19.8
2022-10-15T20:26:00.611Z,19.8
2022-10-15T20:31:06.024Z,19.8
2022-10-15T20:36:13.774Z,19.8
2022-10-15T20:41:21.316Z,19.7
2022-10-15T20:46:26.460Z,19.7
2022-10-15T20:51:31.888Z,19.7
2022-10-15T20:56:37.280Z,19.7
2022-10-15T21:01:42.728Z,19.8
2022-10-15T21:06:48.246Z,19.7
2022-10-15T21:11:53.616Z,19.7
2022-10-15T21:16:59.027Z,19.7
2022-10-15T21:22:04.167Z,19.7
2022-10-15T21:27:09.568Z,19.7
2022-10-15T21:32:14.405Z,19.7
2022-10-15T21:37:19.847Z,19.7
2022-10-15T21:42:25.234Z,19.7
2022-10-15T21:47:30.760Z,19.7
2022-10-15T21:52:36.006Z,19.7
2022-10-15T21:57:41.909Z,19.7
2022-10-15T22:02:47.029Z,19.7
2022-10-15T22:07:52.186Z,19.7
2022-10-15T22:12:57.582Z,19.7
2022-10-15T22:18:02.444Z,19.7
2022-10-15T22:23:07.597Z,19.7
2022-10-15T22:28:13.007Z,19.7
2022-10-15T22:33:18.427Z,19.7
2022-10-15T22:38:23.859Z,19.7
2022-10-15T22:43:29.259Z,19.7
2022-10-15T22:48:34.676Z,19.7
2022-10-15T22:53:40.090Z,19.7
2022-10-15T22:58:45.485Z,19.7
2022-10-15T23:03:50.873Z,19.7
2022-10-15T23:08:56.022Z,19.7
2022-10-15T23:14:01.413Z,19.7
2022-10-15T23:19:06.831Z,19.6
2022-10-15T23:24:12.266Z,19.7
2022-10-15T23:29:17.672Z,19.7
2022-10-15T23:34:23.094Z,19.7
2022-10-15T23:39:28.587Z,19.7
2022-10-15T23:44:34.012Z,19.6
2022-10-15T23:49:39.326Z,19.6
2022-10-15T23:54:44.766Z,19.6
2022-10-15T23:59:50.167Z,19.6
